^^
Station Historical Data
Daily Summary for November 29, 2017 Units:  Both    English   Metric
« Previous Day
Next Day »
Daily Weekly Monthly Yearly Custom
  High: Low: Average:
Temperature: TemperatureF °F /  -17.8 °C 63.3 °F /  17.4 °C 79.3 °F /  26.3 °C
Dew Point: DewpointF °F /  -17.8 °C 26.1 °F /  -3.3 °C 36 °F /  2.2 °C
Humidity: Humidity% 11% 24%
Wind Speed: WindSpeedMPHmph /  0km/h - 2mph /  3.2km/h
Wind Gust: WindSpeedGustMPHmph /  0km/h - -
Wind- - SSE
Pressure: PressureIn in /  0 hPa 29.72 in /  1006.3 hPa -
Precipitation: 0.00 in /  0 mm    
Historical Graphs
 
 
Tabular Data for November 29, 2017
Time Temperature Dew Point Pressure Wind Wind Speed Wind Gust Humidity Rainfall Rate (Hourly) solar Conditions
TemperatureF °F /  -17.8 °C DewpointF °F /  -17.8 °C PressureInin /  0hPa Calm     Humidity% HourlyPrecipInin /  0mm SolarRadiationWatts/m^2 W/m2 Conditions
00:00 75.2 °F /  24 °C 28.8 °F /  -1.8 °C 29.72in /  1006.3hPa Calm   4.0mph /  6.4km/h 18% 0.00in /  0mm 0.0 W/m2
00:16 74.8 °F /  23.8 °C 29.8 °F /  -1.2 °C 29.72in /  1006.3hPa SSW 4.0mph /  6.4km/h 4.0mph /  6.4km/h 19% 0.00in /  0mm 0.0 W/m2
00:21 74.7 °F /  23.7 °C 29.7 °F /  -1.3 °C 29.72in /  1006.3hPa Calm   3.0mph /  4.8km/h 19% 0.00in /  0mm 0.0 W/m2
00:26 74.7 °F /  23.7 °C 29.7 °F /  -1.3 °C 29.72in /  1006.3hPa WSW 4.0mph /  6.4km/h 5.0mph /  8km/h 19% 0.00in /  0mm 0.0 W/m2
00:31 74.5 °F /  23.6 °C 29.5 °F /  -1.4 °C 29.72in /  1006.3hPa SE 0.9mph /  1.4km/h 2.0mph /  3.2km/h 19% 0.00in /  0mm 0.0 W/m2
00:47 74.1 °F /  23.4 °C 30.6 °F /  -0.8 °C 29.72in /  1006.3hPa Calm     20% 0.00in /  0mm 0.0 W/m2
00:52 73.9 °F /  23.3 °C 30.4 °F /  -0.9 °C 29.72in /  1006.3hPa Calm   1.0mph /  1.6km/h 20% 0.00in /  0mm 0.0 W/m2
01:02 73.6 °F /  23.1 °C 30.0 °F /  -1.1 °C 29.72in /  1006.3hPa Calm   1.0mph /  1.6km/h 20% 0.00in /  0mm 0.0 W/m2
01:07 73.4 °F /  23 °C 29.8 °F /  -1.2 °C 29.72in /  1006.3hPa Calm     20% 0.00in /  0mm 0.0 W/m2
01:12 73.2 °F /  22.9 °C 29.7 °F /  -1.3 °C 29.72in /  1006.3hPa SE 2.0mph /  3.2km/h 4.0mph /  6.4km/h 20% 0.00in /  0mm 0.0 W/m2
01:17 73.0 °F /  22.8 °C 29.7 °F /  -1.3 °C 29.72in /  1006.3hPa SSE 2.0mph /  3.2km/h 6.0mph /  9.7km/h 20% 0.00in /  0mm 0.0 W/m2
01:23 73.2 °F /  22.9 °C 28.4 °F /  -2 °C 29.72in /  1006.3hPa SE 8.9mph /  14.3km/h 12.0mph /  19.3km/h 19% 0.00in /  0mm 0.0 W/m2
01:38 73.8 °F /  23.2 °C 28.9 °F /  -1.7 °C 29.73in /  1006.7hPa SE 2.0mph /  3.2km/h 7.0mph /  11.3km/h 19% 0.00in /  0mm 0.0 W/m2
01:43 73.8 °F /  23.2 °C 28.9 °F /  -1.7 °C 29.73in /  1006.7hPa SE 0.9mph /  1.4km/h 7.0mph /  11.3km/h 19% 0.00in /  0mm 0.0 W/m2
01:48 73.6 °F /  23.1 °C 28.8 °F /  -1.8 °C 29.73in /  1006.7hPa East 2.0mph /  3.2km/h 7.0mph /  11.3km/h 19% 0.00in /  0mm 0.0 W/m2
01:53 73.6 °F /  23.1 °C 30.0 °F /  -1.1 °C 29.73in /  1006.7hPa SE 2.9mph /  4.7km/h 9.0mph /  14.5km/h 20% 0.00in /  0mm 0.0 W/m2
01:58 73.6 °F /  23.1 °C 30.0 °F /  -1.1 °C 29.73in /  1006.7hPa ESE 4.0mph /  6.4km/h 6.0mph /  9.7km/h 20% 0.00in /  0mm 0.0 W/m2
02:03 73.6 °F /  23.1 °C 28.8 °F /  -1.8 °C 29.73in /  1006.7hPa ESE 4.0mph /  6.4km/h 5.0mph /  8km/h 19% 0.00in /  0mm 0.0 W/m2
02:08 73.4 °F /  23 °C 29.8 °F /  -1.2 °C 29.73in /  1006.7hPa East 2.0mph /  3.2km/h 3.0mph /  4.8km/h 20% 0.00in /  0mm 0.0 W/m2
02:14 73.2 °F /  22.9 °C 29.7 °F /  -1.3 °C 29.73in /  1006.7hPa East 2.9mph /  4.7km/h 3.0mph /  4.8km/h 20% 0.00in /  0mm 0.0 W/m2
02:24 72.9 °F /  22.7 °C 29.5 °F /  -1.4 °C 29.74in /  1007hPa ESE 0.9mph /  1.4km/h 1.0mph /  1.6km/h 20% 0.00in /  0mm 0.0 W/m2
02:34 72.1 °F /  22.3 °C 30.0 °F /  -1.1 °C 29.74in /  1007hPa ESE 2.9mph /  4.7km/h 4.0mph /  6.4km/h 21% 0.00in /  0mm 0.0 W/m2
02:49 71.4 °F /  21.9 °C 31.6 °F /  -0.2 °C 29.73in /  1006.7hPa ENE 2.9mph /  4.7km/h 9.0mph /  14.5km/h 23% 0.00in /  0mm 0.0 W/m2
03:00 71.2 °F /  21.8 °C 39.0 °F /  3.9 °C 30.18in /  1021.9hPa Calm   5.0mph /  8km/h 31% 0.00in /  0mm 0.0 W/m2
03:05 71.1 °F /  21.7 °C 41.4 °F /  5.2 °C 30.17in /  1021.6hPa East 0.9mph /  1.4km/h 6.0mph /  9.7km/h 34% 0.00in /  0mm 0.0 W/m2
03:15 71.1 °F /  21.7 °C 44.2 °F /  6.8 °C 30.17in /  1021.6hPa SE 2.9mph /  4.7km/h 5.0mph /  8km/h 38% 0.00in /  0mm 0.0 W/m2
03:20 71.1 °F /  21.7 °C 44.8 °F /  7.1 °C 30.17in /  1021.6hPa SE 2.0mph /  3.2km/h 7.0mph /  11.3km/h 39% 0.00in /  0mm 0.0 W/m2
03:30 70.9 °F /  21.6 °C 46.0 °F /  7.8 °C 30.17in /  1021.6hPa ESE 0.9mph /  1.4km/h 4.0mph /  6.4km/h 41% 0.00in /  0mm 0.0 W/m2
03:36 70.9 °F /  21.6 °C 46.6 °F /  8.1 °C 30.17in /  1021.6hPa Calm   3.0mph /  4.8km/h 42% 0.00in /  0mm 0.0 W/m2
03:41 70.5 °F /  21.4 °C 46.9 °F /  8.3 °C 30.17in /  1021.6hPa ESE 2.0mph /  3.2km/h 4.0mph /  6.4km/h 43% 0.00in /  0mm 0.0 W/m2
03:46 70.3 °F /  21.3 °C 47.5 °F /  8.6 °C 30.17in /  1021.6hPa East 2.0mph /  3.2km/h 4.0mph /  6.4km/h 44% 0.00in /  0mm 0.0 W/m2
04:01 69.6 °F /  20.9 °C 48.6 °F /  9.2 °C 30.17in /  1021.6hPa ENE 2.0mph /  3.2km/h 8.0mph /  12.9km/h 47% 0.00in /  0mm 0.0 W/m2
04:06 69.4 °F /  20.8 °C 48.4 °F /  9.1 °C 30.17in /  1021.6hPa ENE 2.9mph /  4.7km/h 3.0mph /  4.8km/h 47% 0.00in /  0mm 0.0 W/m2
04:12 69.3 °F /  20.7 °C 48.2 °F /  9 °C 30.17in /  1021.6hPa East 2.9mph /  4.7km/h 5.0mph /  8km/h 47% 0.00in /  0mm 0.0 W/m2
04:17 69.1 °F /  20.6 °C 48.6 °F /  9.2 °C 30.17in /  1021.6hPa Calm   6.0mph /  9.7km/h 48% 0.00in /  0mm 0.0 W/m2
04:22 68.7 °F /  20.4 °C 48.2 °F /  9 °C 30.17in /  1021.6hPa ESE 0.9mph /  1.4km/h 7.0mph /  11.3km/h 48% 0.00in /  0mm 0.0 W/m2
04:27 68.5 °F /  20.3 °C 48.0 °F /  8.9 °C 30.17in /  1021.6hPa Calm   2.0mph /  3.2km/h 48% 0.00in /  0mm 0.0 W/m2
04:33 68.4 °F /  20.2 °C 48.4 °F /  9.1 °C 30.17in /  1021.6hPa NE 2.9mph /  4.7km/h 5.0mph /  8km/h 49% 0.00in /  0mm 0.0 W/m2
04:38 68.2 °F /  20.1 °C 48.4 °F /  9.1 °C 30.17in /  1021.6hPa East 2.0mph /  3.2km/h 4.0mph /  6.4km/h 49% 0.00in /  0mm 0.0 W/m2
04:43 68.0 °F /  20 °C 48.2 °F /  9 °C 30.17in /  1021.6hPa ENE 2.0mph /  3.2km/h 3.0mph /  4.8km/h 49% 0.00in /  0mm 0.0 W/m2
04:48 67.8 °F /  19.9 °C 48.6 °F /  9.2 °C 30.17in /  1021.6hPa NE 2.0mph /  3.2km/h 3.0mph /  4.8km/h 50% 0.00in /  0mm 0.0 W/m2
04:53 67.5 °F /  19.7 °C 48.2 °F /  9 °C 30.17in /  1021.6hPa Calm   4.0mph /  6.4km/h 50% 0.00in /  0mm 0.0 W/m2
04:59 67.3 °F /  19.6 °C 48.6 °F /  9.2 °C 30.17in /  1021.6hPa Calm   1.0mph /  1.6km/h 51% 0.00in /  0mm 0.0 W/m2
05:05 66.9 °F /  19.4 °C 48.2 °F /  9 °C 30.17in /  1021.6hPa Calm   1.0mph /  1.6km/h 51% 0.00in /  0mm 0.0 W/m2
05:10 66.7 °F /  19.3 °C 48.0 °F /  8.9 °C 30.17in /  1021.6hPa Calm   1.0mph /  1.6km/h 51% 0.00in /  0mm 0.0 W/m2
05:13 66.6 °F /  19.2 °C 48.4 °F /  9.1 °C 30.17in /  1021.6hPa Calm     52% 0.00in /  0mm 0.0 W/m2
05:21 66.0 °F /  18.9 °C 47.8 °F /  8.8 °C 30.18in /  1021.9hPa SE 0.9mph /  1.4km/h 2.0mph /  3.2km/h 52% 0.00in /  0mm 0.0 W/m2
05:26 65.8 °F /  18.8 °C 47.7 °F /  8.7 °C 30.17in /  1021.6hPa Calm     52% 0.00in /  0mm 0.0 W/m2
05:31 65.5 °F /  18.6 °C 47.8 °F /  8.8 °C 30.17in /  1021.6hPa Calm   2.0mph /  3.2km/h 53% 0.00in /  0mm 0.0 W/m2
05:37 65.1 °F /  18.4 °C 47.5 °F /  8.6 °C 30.17in /  1021.6hPa Calm   1.0mph /  1.6km/h 53% 0.00in /  0mm 0.0 W/m2
05:39 64.9 °F /  18.3 °C 47.5 °F /  8.6 °C 30.18in /  1021.9hPa Calm   1.0mph /  1.6km/h 53% 0.00in /  0mm 0.0 W/m2
05:41 64.8 °F /  18.2 °C 47.7 °F /  8.7 °C 30.18in /  1021.9hPa Calm   1.0mph /  1.6km/h 54% 0.00in /  0mm 0.0 W/m2
05:43 64.8 °F /  18.2 °C 47.7 °F /  8.7 °C 30.18in /  1021.9hPa Calm     54% 0.00in /  0mm 0.0 W/m2
05:59 64.0 °F /  17.8 °C 48.0 °F /  8.9 °C 30.18in /  1021.9hPa Calm     56% 0.00in /  0mm 0.0 W/m2
06:02 63.9 °F /  17.7 °C 47.8 °F /  8.8 °C 30.18in /  1021.9hPa Calm     56% 0.00in /  0mm 5.0 W/m2
06:07 63.9 °F /  17.7 °C 48.4 °F /  9.1 °C 30.18in /  1021.9hPa Calm     57% 0.00in /  0mm 7.0 W/m2
06:12 63.7 °F /  17.6 °C 48.2 °F /  9 °C 30.18in /  1021.9hPa Calm     57% 0.00in /  0mm 11.0 W/m2
06:17 63.3 °F /  17.4 °C 47.3 °F /  8.5 °C 30.18in /  1021.9hPa Calm     56% 0.00in /  0mm 12.0 W/m2
06:22 63.3 °F /  17.4 °C 47.8 °F /  8.8 °C 30.18in /  1021.9hPa SE 2.9mph /  4.7km/h 4.0mph /  6.4km/h 57% 0.00in /  0mm 14.0 W/m2
06:32 63.3 °F /  17.4 °C 48.4 °F /  9.1 °C 30.19in /  1022.2hPa ESE 2.9mph /  4.7km/h 3.0mph /  4.8km/h 58% 0.00in /  0mm 19.0 W/m2
06:48 63.5 °F /  17.5 °C 48.4 °F /  9.1 °C 30.18in /  1021.9hPa Calm   1.0mph /  1.6km/h 58% 0.00in /  0mm 23.0 W/m2
07:03 63.9 °F /  17.7 °C 48.7 °F /  9.3 °C 30.19in /  1022.2hPa Calm   1.0mph /  1.6km/h 58% 0.00in /  0mm 28.0 W/m2
07:08 64.0 °F /  17.8 °C 48.9 °F /  9.4 °C 30.19in /  1022.2hPa East 0.9mph /  1.4km/h 1.0mph /  1.6km/h 58% 0.00in /  0mm 30.0 W/m2
07:19 64.9 °F /  18.3 °C 49.8 °F /  9.9 °C 30.20in /  1022.6hPa Calm   2.0mph /  3.2km/h 58% 0.00in /  0mm 35.0 W/m2
07:25 65.7 °F /  18.7 °C 50.0 °F /  10 °C 30.20in /  1022.6hPa SE 0.9mph /  1.4km/h 3.0mph /  4.8km/h 57% 0.00in /  0mm 237.0 W/m2
07:30 66.2 °F /  19 °C 50.0 °F /  10 °C 30.20in /  1022.6hPa ENE 0.9mph /  1.4km/h 4.0mph /  6.4km/h 56% 0.00in /  0mm 283.0 W/m2
07:45 69.3 °F /  20.7 °C 49.8 °F /  9.9 °C 30.20in /  1022.6hPa Calm   1.0mph /  1.6km/h 50% 0.00in /  0mm 364.0 W/m2
07:55 71.4 °F /  21.9 °C 49.6 °F /  9.8 °C 30.20in /  1022.6hPa Calm     46% 0.00in /  0mm 403.0 W/m2
08:00 72.0 °F /  22.2 °C 50.0 °F /  10 °C 30.20in /  1022.6hPa Calm   1.0mph /  1.6km/h 46% 0.00in /  0mm 425.0 W/m2
08:05 72.3 °F /  22.4 °C 49.8 °F /  9.9 °C 30.20in /  1022.6hPa Calm   3.0mph /  4.8km/h 45% 0.00in /  0mm 443.0 W/m2
08:11 73.4 °F /  23 °C 49.5 °F /  9.7 °C 30.20in /  1022.6hPa SE 0.9mph /  1.4km/h 2.0mph /  3.2km/h 43% 0.00in /  0mm 462.0 W/m2
08:21 74.5 °F /  23.6 °C 48.6 °F /  9.2 °C 30.20in /  1022.6hPa Calm   1.0mph /  1.6km/h 40% 0.00in /  0mm 499.0 W/m2
08:26 75.6 °F /  24.2 °C 48.9 °F /  9.4 °C 30.20in /  1022.6hPa Calm     39% 0.00in /  0mm 522.0 W/m2
08:31 76.5 °F /  24.7 °C 48.9 °F /  9.4 °C 30.20in /  1022.6hPa Calm     38% 0.00in /  0mm 543.0 W/m2
08:36 77.4 °F /  25.2 °C 47.5 °F /  8.6 °C 30.20in /  1022.6hPa ESE 0.9mph /  1.4km/h 3.0mph /  4.8km/h 35% 0.00in /  0mm 566.0 W/m2
08:41 78.3 °F /  25.7 °C 47.7 °F /  8.7 °C 30.20in /  1022.6hPa NE 0.9mph /  1.4km/h 3.0mph /  4.8km/h 34% 0.00in /  0mm 584.0 W/m2
08:46 78.8 °F /  26 °C 43.9 °F /  6.6 °C 30.20in /  1022.6hPa NW 2.9mph /  4.7km/h 5.0mph /  8km/h 29% 0.00in /  0mm 601.0 W/m2
08:52 79.5 °F /  26.4 °C 44.4 °F /  6.9 °C 30.20in /  1022.6hPa Calm   3.0mph /  4.8km/h 29% 0.00in /  0mm 626.0 W/m2
08:58 79.9 °F /  26.6 °C 35.2 °F /  1.8 °C 30.20in /  1022.6hPa Calm   6.0mph /  9.7km/h 20% 0.00in /  0mm 647.0 W/m2
09:03 80.2 °F /  26.8 °C 34.2 °F /  1.2 °C 30.20in /  1022.6hPa East 0.9mph /  1.4km/h 7.0mph /  11.3km/h 19% 0.00in /  0mm 664.0 W/m2
09:08 80.6 °F /  27 °C 34.5 °F /  1.4 °C 30.20in /  1022.6hPa SW 0.9mph /  1.4km/h 6.0mph /  9.7km/h 19% 0.00in /  0mm 680.0 W/m2
09:13 81.0 °F /  27.2 °C 33.4 °F /  0.8 °C 30.20in /  1022.6hPa SSW 6.0mph /  9.7km/h 7.0mph /  11.3km/h 18% 0.00in /  0mm 700.0 W/m2
09:18 81.3 °F /  27.4 °C 32.4 °F /  0.2 °C 30.21in /  1022.9hPa SSE 2.9mph /  4.7km/h 9.0mph /  14.5km/h 17% 0.00in /  0mm 715.0 W/m2
09:23 81.7 °F /  27.6 °C 31.1 °F /  -0.5 °C 30.21in /  1022.9hPa WSW 4.0mph /  6.4km/h 6.0mph /  9.7km/h 16% 0.00in /  0mm 733.0 W/m2
09:33 81.9 °F /  27.7 °C 31.3 °F /  -0.4 °C 30.21in /  1022.9hPa SSE 4.0mph /  6.4km/h 8.0mph /  12.9km/h 16% 0.00in /  0mm 768.0 W/m2
09:38 82.2 °F /  27.9 °C 31.6 °F /  -0.2 °C 30.21in /  1022.9hPa SSW 6.9mph /  11.1km/h 9.0mph /  14.5km/h 16% 0.00in /  0mm 780.0 W/m2
09:49 82.6 °F /  28.1 °C 30.2 °F /  -1 °C 30.21in /  1022.9hPa ESE 6.9mph /  11.1km/h 10.0mph /  16.1km/h 15% 0.00in /  0mm 812.0 W/m2
09:54 82.9 °F /  28.3 °C 30.6 °F /  -0.8 °C 30.21in /  1022.9hPa South 4.0mph /  6.4km/h 10.0mph /  16.1km/h 15% 0.00in /  0mm 823.0 W/m2
09:59 83.5 °F /  28.6 °C 30.9 °F /  -0.6 °C 30.21in /  1022.9hPa SSW 6.9mph /  11.1km/h 9.0mph /  14.5km/h 15% 0.00in /  0mm 840.0 W/m2
10:09 84.2 °F /  29 °C 26.1 °F /  -3.3 °C 30.21in /  1022.9hPa SE 4.9mph /  7.9km/h 7.0mph /  11.3km/h 12% 0.00in /  0mm 868.0 W/m2
10:14 84.4 °F /  29.1 °C 26.2 °F /  -3.2 °C 30.21in /  1022.9hPa ENE 0.9mph /  1.4km/h 7.0mph /  11.3km/h 12% 0.00in /  0mm 879.0 W/m2
10:29 85.5 °F /  29.7 °C 28.9 °F /  -1.7 °C 30.21in /  1022.9hPa South 0.9mph /  1.4km/h 8.0mph /  12.9km/h 13% 0.00in /  0mm 918.0 W/m2
10:50 85.5 °F /  29.7 °C 32.5 °F /  0.3 °C 30.20in /  1022.6hPa ESE 4.0mph /  6.4km/h 4.0mph /  6.4km/h 15% 0.00in /  0mm 956.0 W/m2
10:55 86.0 °F /  30 °C 31.3 °F /  -0.4 °C 30.20in /  1022.6hPa ESE 0.9mph /  1.4km/h 4.0mph /  6.4km/h 14% 0.00in /  0mm 965.0 W/m2
11:00 86.0 °F /  30 °C 31.3 °F /  -0.4 °C 30.20in /  1022.6hPa WSW 4.0mph /  6.4km/h 7.0mph /  11.3km/h 14% 0.00in /  0mm 977.0 W/m2
11:10 86.4 °F /  30.2 °C 31.5 °F /  -0.3 °C 30.20in /  1022.6hPa SSE 2.0mph /  3.2km/h 5.0mph /  8km/h 14% 0.00in /  0mm 991.0 W/m2
11:15 86.7 °F /  30.4 °C 31.8 °F /  -0.1 °C 30.19in /  1022.2hPa SE 2.0mph /  3.2km/h 6.0mph /  9.7km/h 14% 0.00in /  0mm 1002.0 W/m2
11:20 87.1 °F /  30.6 °C 32.2 °F /  0.1 °C 30.19in /  1022.2hPa South 4.0mph /  6.4km/h 6.0mph /  9.7km/h 14% 0.00in /  0mm 1009.0 W/m2
11:25 87.4 °F /  30.8 °C 32.4 °F /  0.2 °C 30.19in /  1022.2hPa SE 2.0mph /  3.2km/h 8.0mph /  12.9km/h 14% 0.00in /  0mm 1009.0 W/m2
11:31 88.2 °F /  31.2 °C 31.1 °F /  -0.5 °C 30.19in /  1022.2hPa SE 4.9mph /  7.9km/h 7.0mph /  11.3km/h 13% 0.00in /  0mm 1021.0 W/m2
11:36 88.5 °F /  31.4 °C 33.3 °F /  0.7 °C 30.19in /  1022.2hPa SSE 0.9mph /  1.4km/h 9.0mph /  14.5km/h 14% 0.00in /  0mm 1023.0 W/m2
11:46 88.9 °F /  31.6 °C 31.6 °F /  -0.2 °C 30.18in /  1021.9hPa East 0.9mph /  1.4km/h 3.0mph /  4.8km/h 13% 0.00in /  0mm 1041.0 W/m2
11:56 88.7 °F /  31.5 °C 31.5 °F /  -0.3 °C 30.18in /  1021.9hPa WSW 8.9mph /  14.3km/h 9.0mph /  14.5km/h 13% 0.00in /  0mm 264.0 W/m2
12:06 87.3 °F /  30.7 °C 34.0 °F /  1.1 °C 30.17in /  1021.6hPa SSE 2.0mph /  3.2km/h 4.0mph /  6.4km/h 15% 0.00in /  0mm 1113.0 W/m2
12:22 90.0 °F /  32.2 °C 32.5 °F /  0.3 °C 30.17in /  1021.6hPa ENE 0.9mph /  1.4km/h 9.0mph /  14.5km/h 13% 0.00in /  0mm 1201.0 W/m2
12:27 90.7 °F /  32.6 °C 33.1 °F /  0.6 °C 30.17in /  1021.6hPa NE 0.9mph /  1.4km/h 7.0mph /  11.3km/h 13% 0.00in /  0mm 1195.0 W/m2
12:32 91.2 °F /  32.9 °C 33.4 °F /  0.8 °C 30.17in /  1021.6hPa ENE 4.9mph /  7.9km/h 8.0mph /  12.9km/h 13% 0.00in /  0mm 1234.0 W/m2
12:42 92.1 °F /  33.4 °C 34.2 °F /  1.2 °C 30.16in /  1021.2hPa East 0.9mph /  1.4km/h 5.0mph /  8km/h 13% 0.00in /  0mm 1238.0 W/m2
12:47 92.8 °F /  33.8 °C 32.7 °F /  0.4 °C 30.16in /  1021.2hPa Calm   7.0mph /  11.3km/h 12% 0.00in /  0mm 1218.0 W/m2
12:53 93.0 °F /  33.9 °C 32.9 °F /  0.5 °C 30.16in /  1021.2hPa NE 6.9mph /  11.1km/h 7.0mph /  11.3km/h 12% 0.00in /  0mm 411.0 W/m2
12:58 92.7 °F /  33.7 °C 32.7 °F /  0.4 °C 30.16in /  1021.2hPa Calm   7.0mph /  11.3km/h 12% 0.00in /  0mm 1294.0 W/m2
13:03 92.7 °F /  33.7 °C 32.7 °F /  0.4 °C 30.15in /  1020.9hPa ENE 2.9mph /  4.7km/h 5.0mph /  8km/h 12% 0.00in /  0mm 1255.0 W/m2
13:09 92.7 °F /  33.7 °C 34.7 °F /  1.5 °C 30.15in /  1020.9hPa WNW 2.0mph /  3.2km/h 3.0mph /  4.8km/h 13% 0.00in /  0mm 1181.0 W/m2
13:19 92.3 °F /  33.5 °C 34.3 °F /  1.3 °C 30.15in /  1020.9hPa SSW 2.0mph /  3.2km/h 8.0mph /  12.9km/h 13% 0.00in /  0mm 264.0 W/m2
13:29 90.9 °F /  32.7 °C 35.1 °F /  1.7 °C 30.15in /  1020.9hPa NE 6.0mph /  9.7km/h 6.0mph /  9.7km/h 14% 0.00in /  0mm 392.0 W/m2
13:39 90.9 °F /  32.7 °C 35.1 °F /  1.7 °C 30.14in /  1020.5hPa East 2.0mph /  3.2km/h 7.0mph /  11.3km/h 14% 0.00in /  0mm 336.0 W/m2
13:44 90.5 °F /  32.5 °C 34.9 °F /  1.6 °C 30.14in /  1020.5hPa ESE 2.9mph /  4.7km/h 8.0mph /  12.9km/h 14% 0.00in /  0mm 343.0 W/m2
13:49 90.9 °F /  32.7 °C 33.3 °F /  0.7 °C 30.14in /  1020.5hPa SE 4.9mph /  7.9km/h 6.0mph /  9.7km/h 13% 0.00in /  0mm 343.0 W/m2
13:55 91.6 °F /  33.1 °C 35.6 °F /  2 °C 30.14in /  1020.5hPa WNW 2.0mph /  3.2km/h 3.0mph /  4.8km/h 14% 0.00in /  0mm 1285.0 W/m2
14:00 91.8 °F /  33.2 °C 34.0 °F /  1.1 °C 30.13in /  1020.2hPa Calm   2.0mph /  3.2km/h 13% 0.00in /  0mm 320.0 W/m2
14:05 91.9 °F /  33.3 °C 34.2 °F /  1.2 °C 30.13in /  1020.2hPa NW 2.0mph /  3.2km/h 5.0mph /  8km/h 13% 0.00in /  0mm 313.0 W/m2
14:10 91.9 °F /  33.3 °C 34.2 °F /  1.2 °C 30.13in /  1020.2hPa Calm   5.0mph /  8km/h 13% 0.00in /  0mm 285.0 W/m2
14:20 90.9 °F /  32.7 °C 33.3 °F /  0.7 °C 30.13in /  1020.2hPa WSW 0.9mph /  1.4km/h 6.0mph /  9.7km/h 13% 0.00in /  0mm 1216.0 W/m2
14:30 91.2 °F /  32.9 °C 31.5 °F /  -0.3 °C 30.12in /  1019.9hPa ENE 2.9mph /  4.7km/h 3.0mph /  4.8km/h 12% 0.00in /  0mm 1243.0 W/m2
14:35 91.9 °F /  33.3 °C 34.2 °F /  1.2 °C 30.12in /  1019.9hPa SE 2.9mph /  4.7km/h 5.0mph /  8km/h 13% 0.00in /  0mm 1155.0 W/m2
14:41 92.5 °F /  33.6 °C 32.5 °F /  0.3 °C 30.12in /  1019.9hPa SSE 4.0mph /  6.4km/h 10.0mph /  16.1km/h 12% 0.00in /  0mm 408.0 W/m2
14:56 91.6 °F /  33.1 °C 31.8 °F /  -0.1 °C 30.12in /  1019.9hPa NNE 2.9mph /  4.7km/h 7.0mph /  11.3km/h 12% 0.00in /  0mm 225.0 W/m2
15:11 90.9 °F /  32.7 °C 31.3 °F /  -0.4 °C 30.11in /  1019.5hPa NNE 2.9mph /  4.7km/h 4.0mph /  6.4km/h 12% 0.00in /  0mm 214.0 W/m2
15:21 91.8 °F /  33.2 °C 32.0 °F /  0 °C 30.11in /  1019.5hPa NNW 0.9mph /  1.4km/h 6.0mph /  9.7km/h 12% 0.00in /  0mm 650.0 W/m2
15:26 92.5 °F /  33.6 °C 32.5 °F /  0.3 °C 30.10in /  1019.2hPa NNW 4.9mph /  7.9km/h 9.0mph /  14.5km/h 12% 0.00in /  0mm 299.0 W/m2
15:32 92.8 °F /  33.8 °C 32.7 °F /  0.4 °C 30.10in /  1019.2hPa East 2.9mph /  4.7km/h 5.0mph /  8km/h 12% 0.00in /  0mm 229.0 W/m2
15:37 92.7 °F /  33.7 °C 32.7 °F /  0.4 °C 30.10in /  1019.2hPa ENE 0.9mph /  1.4km/h 5.0mph /  8km/h 12% 0.00in /  0mm 213.0 W/m2
15:42 92.1 °F /  33.4 °C 34.2 °F /  1.2 °C 30.10in /  1019.2hPa SE 4.0mph /  6.4km/h 8.0mph /  12.9km/h 13% 0.00in /  0mm 216.0 W/m2
15:52 92.1 °F /  33.4 °C 32.2 °F /  0.1 °C 30.09in /  1018.8hPa ESE 0.9mph /  1.4km/h 7.0mph /  11.3km/h 12% 0.00in /  0mm 879.0 W/m2
15:57 92.7 °F /  33.7 °C 30.6 °F /  -0.8 °C 30.09in /  1018.8hPa SE 0.9mph /  1.4km/h 4.0mph /  6.4km/h 11% 0.00in /  0mm 578.0 W/m2
16:02 92.8 °F /  33.8 °C 32.7 °F /  0.4 °C 30.09in /  1018.8hPa SSE 2.9mph /  4.7km/h 6.0mph /  9.7km/h 12% 0.00in /  0mm 225.0 W/m2
16:07 92.5 °F /  33.6 °C 32.5 °F /  0.3 °C 30.09in /  1018.8hPa SSW 2.0mph /  3.2km/h 8.0mph /  12.9km/h 12% 0.00in /  0mm 278.0 W/m2
16:13 92.7 °F /  33.7 °C 32.7 °F /  0.4 °C 30.09in /  1018.8hPa SSW 0.9mph /  1.4km/h 4.0mph /  6.4km/h 12% 0.00in /  0mm 603.0 W/m2
16:18 92.8 °F /  33.8 °C 32.7 °F /  0.4 °C 30.09in /  1018.8hPa SW 0.9mph /  1.4km/h 8.0mph /  12.9km/h 12% 0.00in /  0mm 712.0 W/m2
16:28 91.6 °F /  33.1 °C 31.8 °F /  -0.1 °C 30.09in /  1018.8hPa SW 0.9mph /  1.4km/h 2.0mph /  3.2km/h 12% 0.00in /  0mm 109.0 W/m2
16:38 90.1 °F /  32.3 °C 30.7 °F /  -0.7 °C 30.09in /  1018.8hPa SE 2.0mph /  3.2km/h 5.0mph /  8km/h 12% 0.00in /  0mm 100.0 W/m2
16:48 89.6 °F /  32 °C 32.2 °F /  0.1 °C 30.08in /  1018.5hPa South 4.9mph /  7.9km/h 7.0mph /  11.3km/h 13% 0.00in /  0mm 113.0 W/m2
16:53 89.6 °F /  32 °C 32.2 °F /  0.1 °C 30.09in /  1018.8hPa SSW 6.9mph /  11.1km/h 7.0mph /  11.3km/h 13% 0.00in /  0mm 104.0 W/m2
16:58 89.8 °F /  32.1 °C 32.4 °F /  0.2 °C 30.09in /  1018.8hPa SE 4.9mph /  7.9km/h 6.0mph /  9.7km/h 13% 0.00in /  0mm 91.0 W/m2
17:04 89.4 °F /  31.9 °C 32.2 °F /  0.1 °C 30.08in /  1018.5hPa SSE 4.0mph /  6.4km/h 8.0mph /  12.9km/h 13% 0.00in /  0mm 104.0 W/m2
17:09 89.2 °F /  31.8 °C 32.0 °F /  0 °C 30.09in /  1018.8hPa Calm   7.0mph /  11.3km/h 13% 0.00in /  0mm 158.0 W/m2
17:14 89.1 °F /  31.7 °C 31.8 °F /  -0.1 °C 30.09in /  1018.8hPa SE 0.9mph /  1.4km/h 5.0mph /  8km/h 13% 0.00in /  0mm 116.0 W/m2
17:19 88.9 °F /  31.6 °C 31.6 °F /  -0.2 °C 30.09in /  1018.8hPa Calm   6.0mph /  9.7km/h 13% 0.00in /  0mm 158.0 W/m2
17:24 88.9 °F /  31.6 °C 31.6 °F /  -0.2 °C 30.09in /  1018.8hPa Calm   6.0mph /  9.7km/h 13% 0.00in /  0mm 441.0 W/m2
17:29 89.2 °F /  31.8 °C 32.0 °F /  0 °C 30.09in /  1018.8hPa Calm   5.0mph /  8km/h 13% 0.00in /  0mm 213.0 W/m2
17:34 89.4 °F /  31.9 °C 32.2 °F /  0.1 °C 30.09in /  1018.8hPa Calm   4.0mph /  6.4km/h 13% 0.00in /  0mm 185.0 W/m2
17:44 90.1 °F /  32.3 °C 30.7 °F /  -0.7 °C 30.09in /  1018.8hPa Calm   7.0mph /  11.3km/h 12% 0.00in /  0mm 120.0 W/m2
17:50 90.3 °F /  32.4 °C 30.7 °F /  -0.7 °C 30.09in /  1018.8hPa Calm   4.0mph /  6.4km/h 12% 0.00in /  0mm 76.0 W/m2
17:55 90.0 °F /  32.2 °C 30.6 °F /  -0.8 °C 30.09in /  1018.8hPa SSW 0.9mph /  1.4km/h 7.0mph /  11.3km/h 12% 0.00in /  0mm 74.0 W/m2
18:00 89.6 °F /  32 °C 30.2 °F /  -1 °C 30.09in /  1018.8hPa Calm   5.0mph /  8km/h 12% 0.00in /  0mm 83.0 W/m2
18:05 89.2 °F /  31.8 °C 30.0 °F /  -1.1 °C 30.09in /  1018.8hPa Calm   4.0mph /  6.4km/h 12% 0.00in /  0mm 93.0 W/m2
18:10 89.1 °F /  31.7 °C 31.8 °F /  -0.1 °C 30.09in /  1018.8hPa SSE 4.9mph /  7.9km/h 6.0mph /  9.7km/h 13% 0.00in /  0mm 90.0 W/m2
18:15 88.7 °F /  31.5 °C 31.5 °F /  -0.3 °C 30.09in /  1018.8hPa SSE 4.9mph /  7.9km/h 5.0mph /  8km/h 13% 0.00in /  0mm 79.0 W/m2
18:20 88.5 °F /  31.4 °C 31.5 °F /  -0.3 °C 30.09in /  1018.8hPa SE 4.9mph /  7.9km/h 6.0mph /  9.7km/h 13% 0.00in /  0mm 120.0 W/m2
18:35 88.0 °F /  31.1 °C 30.9 °F /  -0.6 °C 30.10in /  1019.2hPa South 6.0mph /  9.7km/h 7.0mph /  11.3km/h 13% 0.00in /  0mm 56.0 W/m2
18:41 87.8 °F /  31 °C 30.9 °F /  -0.6 °C 30.10in /  1019.2hPa SE 2.0mph /  3.2km/h 6.0mph /  9.7km/h 13% 0.00in /  0mm 54.0 W/m2
18:46 87.8 °F /  31 °C 30.9 °F /  -0.6 °C 30.10in /  1019.2hPa SSE 8.1mph /  13km/h 8.1mph /  13km/h 13% 0.00in /  0mm 53.0 W/m2
18:51 87.6 °F /  30.9 °C 30.7 °F /  -0.7 °C 30.10in /  1019.2hPa SE 4.0mph /  6.4km/h 9.0mph /  14.5km/h 13% 0.00in /  0mm 49.0 W/m2
18:56 87.6 °F /  30.9 °C 30.7 °F /  -0.7 °C 30.10in /  1019.2hPa SSE 0.9mph /  1.4km/h 3.0mph /  4.8km/h 13% 0.00in /  0mm 44.0 W/m2
19:01 87.6 °F /  30.9 °C 30.7 °F /  -0.7 °C 30.10in /  1019.2hPa SSE 0.9mph /  1.4km/h 5.0mph /  8km/h 13% 0.00in /  0mm 35.0 W/m2
19:06 87.4 °F /  30.8 °C 30.6 °F /  -0.8 °C 30.11in /  1019.5hPa WSW 2.9mph /  4.7km/h 9.0mph /  14.5km/h 13% 0.00in /  0mm 32.0 W/m2
19:11 86.4 °F /  30.2 °C 31.5 °F /  -0.3 °C 30.12in /  1019.9hPa SW 6.0mph /  9.7km/h 21.0mph /  33.8km/h 14% 0.00in /  0mm 23.0 W/m2
19:16 84.9 °F /  29.4 °C 30.4 °F /  -0.9 °C 30.12in /  1019.9hPa SSW 4.0mph /  6.4km/h 13.0mph /  20.9km/h 14% 0.00in /  0mm 14.0 W/m2
19:21 83.8 °F /  28.8 °C 31.3 °F /  -0.4 °C 30.12in /  1019.9hPa West 8.1mph /  13km/h 15.0mph /  24.1km/h 15% 0.00in /  0mm 5.0 W/m2
19:27 83.1 °F /  28.4 °C 30.7 °F /  -0.7 °C 30.13in /  1020.2hPa SW 6.9mph /  11.1km/h 13.0mph /  20.9km/h 15% 0.00in /  0mm 0.0 W/m2
19:32 82.8 °F /  28.2 °C 30.4 °F /  -0.9 °C 30.13in /  1020.2hPa SW 8.1mph /  13km/h 14.0mph /  22.5km/h 15% 0.00in /  0mm 0.0 W/m2
19:37 82.2 °F /  27.9 °C 30.0 °F /  -1.1 °C 30.13in /  1020.2hPa SW 2.0mph /  3.2km/h 16.0mph /  25.7km/h 15% 0.00in /  0mm 0.0 W/m2
19:43 81.9 °F /  27.7 °C 29.7 °F /  -1.3 °C 30.14in /  1020.5hPa WSW 4.9mph /  7.9km/h 11.0mph /  17.7km/h 15% 0.00in /  0mm 0.0 W/m2
19:48 81.5 °F /  27.5 °C 30.9 °F /  -0.6 °C 30.14in /  1020.5hPa SSW 4.0mph /  6.4km/h 12.0mph /  19.3km/h 16% 0.00in /  0mm 0.0 W/m2
19:57 81.0 °F /  27.2 °C 30.6 °F /  -0.8 °C 30.15in /  1020.9hPa WSW 12.1mph /  19.5km/h 15.0mph /  24.1km/h 16% 0.00in /  0mm 0.0 W/m2
20:08 80.2 °F /  26.8 °C 30.0 °F /  -1.1 °C 30.15in /  1020.9hPa SW 2.9mph /  4.7km/h 8.0mph /  12.9km/h 16% 0.00in /  0mm 0.0 W/m2
20:13 79.9 °F /  26.6 °C 31.1 °F /  -0.5 °C 30.15in /  1020.9hPa SW 2.0mph /  3.2km/h 9.0mph /  14.5km/h 17% 0.00in /  0mm 0.0 W/m2
20:29 79.2 °F /  26.2 °C 32.0 °F /  0 °C 30.17in /  1021.6hPa West 6.9mph /  11.1km/h 13.0mph /  20.9km/h 18% 0.00in /  0mm 0.0 W/m2
20:34 79.0 °F /  26.1 °C 31.8 °F /  -0.1 °C 30.18in /  1021.9hPa WSW 2.0mph /  3.2km/h 10.0mph /  16.1km/h 18% 0.00in /  0mm 0.0 W/m2
20:40 78.8 °F /  26 °C 33.1 °F /  0.6 °C 30.18in /  1021.9hPa Calm   4.0mph /  6.4km/h 19% 0.00in /  0mm 0.0 W/m2
21:00 78.1 °F /  25.6 °C 33.8 °F /  1 °C 30.20in /  1022.6hPa ESE 0.9mph /  1.4km/h 3.0mph /  4.8km/h 20% 0.00in /  0mm 0.0 W/m2
21:06 77.9 °F /  25.5 °C 33.6 °F /  0.9 °C 30.21in /  1022.9hPa Calm   2.0mph /  3.2km/h 20% 0.00in /  0mm 0.0 W/m2
21:11 77.5 °F /  25.3 °C 33.3 °F /  0.7 °C 30.21in /  1022.9hPa SE 2.9mph /  4.7km/h 7.0mph /  11.3km/h 20% 0.00in /  0mm 0.0 W/m2
21:22 77.4 °F /  25.2 °C 33.1 °F /  0.6 °C 30.21in /  1022.9hPa WNW 2.9mph /  4.7km/h 6.0mph /  9.7km/h 20% 0.00in /  0mm 0.0 W/m2
21:27 77.4 °F /  25.2 °C 33.1 °F /  0.6 °C 30.21in /  1022.9hPa Calm   4.0mph /  6.4km/h 20% 0.00in /  0mm 0.0 W/m2
21:48 77.0 °F /  25 °C 32.9 °F /  0.5 °C 30.21in /  1022.9hPa Calm   6.0mph /  9.7km/h 20% 0.00in /  0mm 0.0 W/m2
21:59 76.8 °F /  24.9 °C 32.7 °F /  0.4 °C 30.21in /  1022.9hPa Calm     20% 0.00in /  0mm 0.0 W/m2
22:04 76.5 °F /  24.7 °C 33.6 °F /  0.9 °C 30.21in /  1022.9hPa South 0.9mph /  1.4km/h 5.0mph /  8km/h 21% 0.00in /  0mm 0.0 W/m2
22:09 76.3 °F /  24.6 °C 33.4 °F /  0.8 °C 30.22in /  1023.2hPa Calm   1.0mph /  1.6km/h 21% 0.00in /  0mm 0.0 W/m2
22:14 75.9 °F /  24.4 °C 34.3 °F /  1.3 °C 30.22in /  1023.2hPa Calm   4.0mph /  6.4km/h 22% 0.00in /  0mm 0.0 W/m2
22:20 75.6 °F /  24.2 °C 34.0 °F /  1.1 °C 30.22in /  1023.2hPa Calm   4.0mph /  6.4km/h 22% 0.00in /  0mm 0.0 W/m2
22:25 75.6 °F /  24.2 °C 34.0 °F /  1.1 °C 30.22in /  1023.2hPa Calm   1.0mph /  1.6km/h 22% 0.00in /  0mm 0.0 W/m2
22:30 75.4 °F /  24.1 °C 34.0 °F /  1.1 °C 30.22in /  1023.2hPa Calm   2.0mph /  3.2km/h 22% 0.00in /  0mm 0.0 W/m2
22:36 75.0 °F /  23.9 °C 34.7 °F /  1.5 °C 30.22in /  1023.2hPa SSE 0.9mph /  1.4km/h 1.0mph /  1.6km/h 23% 0.00in /  0mm 0.0 W/m2
22:46 74.5 °F /  23.6 °C 34.3 °F /  1.3 °C 30.23in /  1023.6hPa Calm   1.0mph /  1.6km/h 23% 0.00in /  0mm 0.0 W/m2
22:52 74.3 °F /  23.5 °C 34.2 °F /  1.2 °C 30.23in /  1023.6hPa Calm   5.0mph /  8km/h 23% 0.00in /  0mm 0.0 W/m2
22:57 74.3 °F /  23.5 °C 34.2 °F /  1.2 °C 30.23in /  1023.6hPa Calm   1.0mph /  1.6km/h 23% 0.00in /  0mm 0.0 W/m2
23:02 74.1 °F /  23.4 °C 34.0 °F /  1.1 °C 30.23in /  1023.6hPa SSE 0.9mph /  1.4km/h 3.0mph /  4.8km/h 23% 0.00in /  0mm 0.0 W/m2
23:07 74.1 °F /  23.4 °C 34.0 °F /  1.1 °C 30.23in /  1023.6hPa SSE 2.0mph /  3.2km/h 3.0mph /  4.8km/h 23% 0.00in /  0mm 0.0 W/m2
23:18 74.1 °F /  23.4 °C 34.0 °F /  1.1 °C 30.23in /  1023.6hPa Calm   2.0mph /  3.2km/h 23% 0.00in /  0mm 0.0 W/m2
23:39 74.1 °F /  23.4 °C 34.0 °F /  1.1 °C 30.24in /  1023.9hPa SE 0.9mph /  1.4km/h 4.0mph /  6.4km/h 23% 0.00in /  0mm 0.0 W/m2
23:44 74.1 °F /  23.4 °C 32.9 °F /  0.5 °C 30.24in /  1023.9hPa Calm   4.0mph /  6.4km/h 22% 0.00in /  0mm 0.0 W/m2
23:49 73.9 °F /  23.3 °C 32.7 °F /  0.4 °C 30.25in /  1024.3hPa Calm   1.0mph /  1.6km/h 22% 0.00in /  0mm 0.0 W/m2
23:55 73.9 °F /  23.3 °C 32.7 °F /  0.4 °C 30.25in /  1024.3hPa NE 0.9mph /  1.4km/h 5.0mph /  8km/h 22% 0.00in /  0mm 0.0 W/m2
Olympia, Windhoek, Namibia
Compliments of Weather Underground - 3 mb